Time;durP1;ratioP1;P1;durP2;ratioP2;P2;SDS_P1;SDS_P2;PMS_P1;PMS_P2;Temp;Humidity;BMP_temperature;BMP_pressure;BME280_temperature;BME280_humidity;BME280_pressure;Samples;Min_cycle;Max_cycle;Signal;HPM_P1;HPM_P2
2021/12/23 00:01:59;;;;;;;19.73;13.60;;;22.00;29.50;;;;;;5131560;27;20142;-66
2021/12/23 00:04:26;;;;;;;19.33;14.13;;;22.00;29.50;;;;;;5132132;27;20047;-66
2021/12/23 00:06:54;;;;;;;18.58;13.48;;;22.00;29.50;;;;;;5131058;27;20039;-66
2021/12/23 00:09:24;;;;;;;19.08;12.95;;;22.00;29.50;;;;;;5132248;27;20085;-66
2021/12/23 00:11:51;;;;;;;19.08;13.82;;;22.00;29.50;;;;;;5131195;27;20047;-66
2021/12/23 00:18:09;;;;;;;;;;;22.00;29.50;;;;;;5131816;27;20130;-66
2021/12/23 00:23:28;;;;;;;18.88;12.95;;;21.90;29.50;;;;;;5131546;27;20097;-66
2021/12/23 00:26:00;;;;;;;20.88;13.80;;;21.90;29.50;;;;;;5131782;27;20411;-66
2021/12/23 00:28:28;;;;;;;20.77;13.82;;;22.00;29.60;;;;;;5130873;27;20100;-66
2021/12/23 00:30:56;;;;;;;17.77;12.98;;;21.90;29.50;;;;;;5131762;27;20077;-67
2021/12/23 00:33:24;;;;;;;16.50;12.27;;;21.90;29.50;;;;;;5131581;27;20047;-67
2021/12/23 00:35:53;;;;;;;19.30;13.60;;;21.90;29.50;;;;;;5131320;27;20039;-66
2021/12/23 00:38:27;;;;;;;17.40;12.65;;;21.90;29.50;;;;;;5130740;27;20157;-66
2021/12/23 00:40:57;;;;;;;18.55;13.00;;;21.90;29.50;;;;;;5131182;27;20079;-66
2021/12/23 00:43:25;;;;;;;18.55;12.80;;;21.90;29.50;;;;;;5131376;27;20079;-66
2021/12/23 00:45:52;;;;;;;18.40;12.60;;;21.90;29.50;;;;;;5131685;27;20070;-66
2021/12/23 00:48:19;;;;;;;17.05;12.55;;;21.90;29.40;;;;;;5130519;27;20533;-66
2021/12/23 00:50:47;;;;;;;18.65;12.48;;;22.00;29.50;;;;;;5131718;27;20070;-66
2021/12/23 00:53:18;;;;;;;16.05;12.13;;;21.90;29.40;;;;;;5111551;28;20079;-66
2021/12/23 00:55:57;;;;;;;16.92;12.02;;;21.90;29.40;;;;;;5129411;28;20039;-66
2021/12/23 00:58:24;;;;;;;16.90;12.55;;;21.90;29.40;;;;;;5130494;28;20051;-67
2021/12/23 01:00:52;;;;;;;18.10;12.75;;;21.90;29.40;;;;;;5130743;28;20039;-66
2021/12/23 01:03:19;;;;;;;14.82;11.98;;;21.90;29.40;;;;;;5130647;28;20101;-66
2021/12/23 01:05:47;;;;;;;18.48;12.73;;;21.90;29.40;;;;;;5131160;28;20438;-66
2021/12/23 01:08:18;;;;;;;17.77;12.43;;;21.90;29.40;;;;;;5112768;28;20043;-66
2021/12/23 01:10:49;;;;;;;17.90;12.55;;;21.90;29.40;;;;;;5131454;28;20104;-66
2021/12/23 01:13:19;;;;;;;15.35;11.60;;;21.90;29.50;;;;;;5130523;28;20051;-66
2021/12/23 01:16:02;;;;;;;19.65;12.45;;;21.90;29.40;;;;;;5130922;28;20085;-66
2021/12/23 01:18:37;;;;;;;17.13;12.23;;;21.80;29.40;;;;;;5129983;28;20047;-67
2021/12/23 01:21:15;;;;;;;16.60;11.98;;;21.80;29.40;;;;;;5131605;28;20158;-66
2021/12/23 01:23:50;;;;;;;16.00;12.00;;;21.80;29.40;;;;;;5130724;28;20494;-66
2021/12/23 01:26:21;;;;;;;16.48;11.90;;;21.80;29.40;;;;;;5130606;28;20047;-66
2021/12/23 01:28:56;;;;;;;15.38;11.05;;;21.80;29.40;;;;;;5112685;28;20047;-66
2021/12/23 01:31:25;;;;;;;16.50;12.50;;;21.80;29.40;;;;;;5130878;28;20043;-66
2021/12/23 01:33:52;;;;;;;17.35;12.05;;;21.80;29.40;;;;;;5130988;28;20055;-66
2021/12/23 01:36:20;;;;;;;15.95;11.80;;;21.80;29.40;;;;;;5130869;28;20178;-66
2021/12/23 01:38:47;;;;;;;14.90;10.70;;;21.80;29.40;;;;;;5131292;27;20384;-66
2021/12/23 01:41:14;;;;;;;16.83;11.43;;;21.80;29.40;;;;;;5134510;27;20051;-66
2021/12/23 01:43:41;;;;;;;17.05;11.25;;;21.80;29.40;;;;;;5134619;27;20093;-66
2021/12/23 01:46:14;;;;;;;15.43;11.43;;;21.80;29.40;;;;;;5134829;27;20062;-66
2021/12/23 01:48:42;;;;;;;14.90;11.32;;;21.80;29.40;;;;;;5134234;27;20084;-66
2021/12/23 01:51:09;;;;;;;13.13;9.88;;;21.80;29.40;;;;;;5134738;27;20047;-66
2021/12/23 01:53:36;;;;;;;16.23;11.10;;;21.80;29.40;;;;;;5134419;27;20079;-66
2021/12/23 01:56:04;;;;;;;14.80;10.95;;;21.80;29.40;;;;;;5134418;27;20051;-67
2021/12/23 01:58:35;;;;;;;14.60;10.95;;;21.80;29.40;;;;;;5133288;27;20047;-66
2021/12/23 02:01:05;;;;;;;13.18;10.15;;;21.70;29.80;;;;;;5134332;27;20466;-66
2021/12/23 02:03:32;;;;;;;15.48;11.50;;;21.80;29.40;;;;;;5134048;27;20136;-66
2021/12/23 02:06:00;;;;;;;15.63;11.07;;;21.70;29.40;;;;;;5134345;27;20051;-66
2021/12/23 02:08:31;;;;;;;;;;;21.80;29.40;;;;;;5134666;27;20126;-66
2021/12/23 02:11:00;;;;;;;14.32;10.13;;;21.80;29.40;;;;;;5134207;27;20264;-66
2021/12/23 02:13:28;;;;;;;13.68;10.48;;;21.80;29.40;;;;;;5134007;27;20222;-66
2021/12/23 02:15:55;;;;;;;15.68;10.73;;;21.70;29.40;;;;;;5134232;27;20411;-66
2021/12/23 02:18:23;;;;;;;15.18;11.05;;;21.80;29.40;;;;;;5133437;27;20051;-66
2021/12/23 02:20:50;;;;;;;14.25;9.95;;;21.70;29.40;;;;;;5133891;27;20559;-66
2021/12/23 02:23:17;;;;;;;14.18;9.90;;;21.70;29.40;;;;;;5115236;27;20047;-66
2021/12/23 02:25:44;;;;;;;13.82;9.90;;;21.80;29.40;;;;;;5133913;27;20127;-66
2021/12/23 02:28:17;;;;;;;15.27;10.55;;;21.80;29.40;;;;;;5133794;27;20083;-66
2021/12/23 02:30:45;;;;;;;13.52;9.88;;;21.80;29.40;;;;;;5134122;27;20079;-66
2021/12/23 02:33:13;;;;;;;12.60;9.40;;;21.70;29.80;;;;;;5115342;27;20047;-66
2021/12/23 02:35:40;;;;;;;13.52;10.25;;;21.80;29.40;;;;;;5133483;27;20093;-68
2021/12/23 02:38:07;;;;;;;13.23;9.75;;;21.70;29.30;;;;;;5132867;27;20047;-66
2021/12/23 02:40:40;;;;;;;14.43;10.07;;;21.70;29.30;;;;;;5133888;27;20063;-66
2021/12/23 02:43:14;;;;;;;15.32;10.55;;;21.70;29.40;;;;;;5133195;27;20093;-66
2021/12/23 02:45:43;;;;;;;11.18;8.60;;;21.70;29.30;;;;;;5134011;27;20590;-66
2021/12/23 02:48:13;;;;;;;13.68;9.82;;;21.70;29.30;;;;;;5132690;27;20484;-66
2021/12/23 02:50:43;;;;;;;12.00;9.27;;;21.70;29.30;;;;;;5132644;27;20047;-66
2021/12/23 02:53:11;;;;;;;15.07;10.48;;;21.70;29.30;;;;;;5132950;27;20122;-66
2021/12/23 02:55:38;;;;;;;10.75;9.27;;;21.70;29.30;;;;;;5114960;27;20050;-66
2021/12/23 02:58:06;;;;;;;12.80;9.40;;;21.70;29.30;;;;;;5133040;27;20051;-66
2021/12/23 03:00:34;;;;;;;13.88;9.60;;;21.70;29.30;;;;;;5115109;27;20126;-66
2021/12/23 03:03:02;;;;;;;11.65;8.48;;;21.70;29.30;;;;;;5132951;27;20054;-66
2021/12/23 03:05:29;;;;;;;13.52;9.15;;;21.70;29.30;;;;;;5133424;27;20066;-66
2021/12/23 03:07:59;;;;;;;14.23;9.77;;;21.70;29.30;;;;;;5133005;27;20075;-66
2021/12/23 03:10:26;;;;;;;12.02;8.75;;;21.70;29.30;;;;;;5115319;27;20126;-66
2021/12/23 03:12:53;;;;;;;9.38;7.70;;;21.70;29.30;;;;;;5133003;27;20445;-66
2021/12/23 03:15:20;;;;;;;13.10;9.27;;;21.70;29.30;;;;;;5132790;27;20051;-66
2021/12/23 03:17:48;;;;;;;13.70;9.40;;;21.70;29.30;;;;;;5132624;27;20499;-67
2021/12/23 03:20:16;;;;;;;10.77;8.10;;;21.70;29.30;;;;;;5132990;27;20400;-66
2021/12/23 03:22:43;;;;;;;12.68;9.90;;;21.70;29.30;;;;;;5132827;27;20080;-66
2021/12/23 03:25:11;;;;;;;12.07;9.25;;;21.70;29.30;;;;;;5132296;27;20093;-66
2021/12/23 03:27:38;;;;;;;12.50;8.93;;;21.70;29.40;;;;;;5132693;27;20055;-66
2021/12/23 03:30:06;;;;;;;12.25;8.73;;;21.70;29.30;;;;;;5114464;27;20404;-66
2021/12/23 03:32:33;;;;;;;12.18;8.95;;;21.70;29.30;;;;;;5132919;27;20047;-66
2021/12/23 03:35:00;;;;;;;10.70;8.65;;;21.70;29.30;;;;;;5132326;27;20486;-66
2021/12/23 03:37:27;;;;;;;9.63;7.53;;;21.60;29.30;;;;;;5132317;27;20074;-66
2021/12/23 03:39:55;;;;;;;12.88;9.25;;;21.60;29.30;;;;;;5132277;27;20483;-66
2021/12/23 03:42:22;;;;;;;11.50;8.20;;;21.70;29.30;;;;;;5131773;27;20059;-66
2021/12/23 03:44:49;;;;;;;11.02;8.15;;;21.70;29.30;;;;;;5130436;27;20047;-66
2021/12/23 03:47:16;;;;;;;11.45;8.65;;;21.70;29.30;;;;;;5130950;27;20078;-66
2021/12/23 03:49:43;;;;;;;11.23;8.45;;;21.70;29.30;;;;;;5131944;27;20093;-66
2021/12/23 03:52:11;;;;;;;10.45;8.15;;;21.70;29.30;;;;;;5132207;27;20047;-66
2021/12/23 03:54:38;;;;;;;10.63;7.97;;;21.60;29.30;;;;;;5114035;27;20561;-66
2021/12/23 03:57:05;;;;;;;9.43;7.93;;;21.60;29.30;;;;;;5132147;27;20075;-67
2021/12/23 03:59:33;;;;;;;9.88;7.72;;;21.60;29.30;;;;;;5131997;27;20089;-66
2021/12/23 04:02:00;;;;;;;11.52;8.27;;;21.70;29.30;;;;;;5113132;28;20100;-67
2021/12/23 04:04:27;;;;;;;10.70;8.30;;;21.60;29.30;;;;;;5131602;27;20051;-66
2021/12/23 04:06:55;;;;;;;10.25;7.50;;;21.70;29.30;;;;;;5131652;27;20466;-68
2021/12/23 04:09:22;;;;;;;9.60;7.50;;;21.70;29.30;;;;;;5113867;27;20086;-66
2021/12/23 04:11:49;;;;;;;10.80;7.68;;;21.60;29.30;;;;;;5132299;27;20078;-66
2021/12/23 04:14:16;;;;;;;9.68;7.03;;;21.70;29.30;;;;;;5131661;27;20046;-66
2021/12/23 04:16:43;;;;;;;9.57;7.53;;;21.70;29.30;;;;;;5131195;27;20043;-66
2021/12/23 04:19:11;;;;;;;9.45;7.63;;;21.70;29.30;;;;;;5132012;27;20039;-66
2021/12/23 04:21:40;;;;;;;10.65;7.65;;;21.70;29.30;;;;;;5131963;27;20105;-66
2021/12/23 04:24:09;;;;;;;10.45;7.47;;;21.70;29.30;;;;;;5131595;27;20483;-66
2021/12/23 04:26:38;;;;;;;9.82;7.90;;;21.60;29.20;;;;;;5112777;27;20548;-66
2021/12/23 04:29:06;;;;;;;9.43;7.20;;;21.70;29.20;;;;;;5132061;27;20086;-67
2021/12/23 04:31:34;;;;;;;9.68;7.40;;;21.70;29.30;;;;;;5112864;27;20043;-66
2021/12/23 04:34:01;;;;;;;8.85;6.80;;;21.70;29.20;;;;;;5131917;27;20101;-67
2021/12/23 04:36:31;;;;;;;9.82;7.43;;;21.70;29.20;;;;;;5131253;27;20078;-66
2021/12/23 04:38:59;;;;;;;9.68;7.70;;;21.70;29.20;;;;;;5131598;27;20089;-66
2021/12/23 04:41:27;;;;;;;10.98;7.72;;;21.70;29.20;;;;;;5131700;27;20074;-66
2021/12/23 04:43:55;;;;;;;9.82;7.28;;;21.70;29.20;;;;;;5113291;27;20088;-66
2021/12/23 04:46:22;;;;;;;9.75;7.20;;;21.70;29.20;;;;;;5130919;27;20077;-66
2021/12/23 04:48:51;;;;;;;8.73;6.85;;;21.70;29.20;;;;;;5131388;27;20040;-66
2021/12/23 04:51:19;;;;;;;8.75;6.88;;;21.60;29.20;;;;;;5131262;27;20467;-66
2021/12/23 04:53:46;;;;;;;8.68;6.63;;;21.70;29.30;;;;;;5130889;28;20047;-66
2021/12/23 04:56:14;;;;;;;7.97;6.57;;;21.60;29.20;;;;;;5130779;28;20047;-66
2021/12/23 04:58:42;;;;;;;8.10;6.82;;;21.60;29.20;;;;;;5130942;28;20476;-66
2021/12/23 05:01:19;;;;;;;8.13;6.47;;;21.60;29.20;;;;;;5131144;28;20377;-66
2021/12/23 05:03:47;;;;;;;9.55;7.00;;;21.60;29.20;;;;;;5131427;28;20075;-66
2021/12/23 05:06:16;;;;;;;8.85;6.85;;;21.60;29.20;;;;;;5130785;28;20480;-66
2021/12/23 05:08:44;;;;;;;9.50;6.60;;;21.60;29.20;;;;;;5130829;28;20488;-66
2021/12/23 05:11:11;;;;;;;9.98;6.82;;;21.60;29.20;;;;;;5096200;28;20075;-66
2021/12/23 05:13:39;;;;;;;7.93;6.15;;;21.60;29.20;;;;;;5131233;27;20130;-66
2021/12/23 05:16:06;;;;;;;8.75;6.43;;;21.60;29.20;;;;;;5134844;27;20540;-66
2021/12/23 05:18:33;;;;;;;7.82;6.15;;;21.60;29.20;;;;;;5134967;27;20050;-66
2021/12/23 05:21:02;;;;;;;8.77;6.30;;;21.60;29.10;;;;;;5135075;27;20075;-66
2021/12/23 05:23:30;;;;;;;8.35;6.25;;;21.60;29.20;;;;;;5116745;27;20138;-66
2021/12/23 05:25:57;;;;;;;8.07;5.90;;;21.60;29.20;;;;;;5135146;27;20635;-66
2021/12/23 05:28:24;;;;;;;6.72;5.60;;;21.60;29.20;;;;;;5134170;27;20043;-66
2021/12/23 05:30:52;;;;;;;9.93;6.78;;;21.60;29.10;;;;;;5134893;27;20086;-66
2021/12/23 05:33:19;;;;;;;8.05;6.10;;;21.60;29.20;;;;;;5136048;27;20082;-66
2021/12/23 05:35:46;;;;;;;7.18;5.65;;;21.60;29.10;;;;;;5134455;27;20556;-66
2021/12/23 05:38:13;;;;;;;6.97;5.95;;;21.60;29.20;;;;;;5133594;27;20078;-66
2021/12/23 05:40:40;;;;;;;6.90;5.75;;;21.60;29.20;;;;;;5134649;27;20148;-66
2021/12/23 05:43:07;;;;;;;7.22;6.07;;;21.60;29.20;;;;;;5134335;27;20046;-66
2021/12/23 05:45:35;;;;;;;9.13;5.97;;;21.60;29.10;;;;;;5134408;27;20047;-66
2021/12/23 05:48:02;;;;;;;6.82;5.93;;;21.60;29.10;;;;;;5134312;27;20242;-66
2021/12/23 05:50:29;;;;;;;8.90;6.43;;;21.60;29.10;;;;;;5134274;27;20074;-66
2021/12/23 05:52:57;;;;;;;6.38;5.63;;;21.60;29.10;;;;;;5134895;27;20149;-66
2021/12/23 05:55:24;;;;;;;7.07;5.90;;;21.60;29.10;;;;;;5134483;27;20047;-66
2021/12/23 05:57:51;;;;;;;7.05;5.60;;;21.60;29.10;;;;;;5133948;27;20051;-66
2021/12/23 06:00:28;;;;;;;8.30;5.80;;;21.70;29.10;;;;;;5116552;27;20047;-66
2021/12/23 06:02:56;;;;;;;7.47;5.60;;;21.70;29.10;;;;;;5134056;27;20047;-66
2021/12/23 06:05:24;;;;;;;6.57;5.72;;;21.70;29.10;;;;;;5134282;27;20130;-66
2021/12/23 06:07:51;;;;;;;6.65;5.80;;;21.70;28.90;;;;;;5133835;27;20058;-66
2021/12/23 06:10:19;;;;;;;7.13;5.68;;;21.70;28.80;;;;;;5134115;27;20462;-66
2021/12/23 06:12:47;;;;;;;6.13;5.53;;;21.70;28.70;;;;;;5133136;27;20135;-66
2021/12/23 06:15:15;;;;;;;7.05;5.60;;;21.70;28.60;;;;;;5134045;27;20555;-66
2021/12/23 06:17:42;;;;;;;7.22;6.20;;;21.70;28.50;;;;;;5132408;27;20085;-66
2021/12/23 06:20:12;;;;;;;6.38;5.15;;;21.70;28.40;;;;;;5126942;27;20537;-68
2021/12/23 06:22:39;;;;;;;7.22;5.80;;;21.70;28.40;;;;;;5121970;27;20111;-67
2021/12/23 06:25:09;;;;;;;7.75;5.70;;;21.70;28.40;;;;;;5127960;27;20475;-68
2021/12/23 06:27:37;;;;;;;7.13;5.30;;;21.70;28.50;;;;;;5124221;27;20070;-64
2021/12/23 06:30:15;;;;;;;7.07;5.80;;;21.70;28.50;;;;;;5107686;27;20080;-67
2021/12/23 06:32:43;;;;;;;5.95;5.20;;;21.70;28.60;;;;;;5124539;27;20051;-67
2021/12/23 06:35:11;;;;;;;6.70;5.40;;;21.70;29.00;;;;;;5104918;27;20124;-70
2021/12/23 06:37:38;;;;;;;6.78;5.13;;;21.70;28.90;;;;;;5123810;27;20134;-66
2021/12/23 06:40:06;;;;;;;8.65;5.93;;;21.70;28.90;;;;;;5123729;27;20078;-66
2021/12/23 06:42:33;;;;;;;6.53;5.13;;;21.70;28.80;;;;;;5122875;27;20046;-66
2021/12/23 06:45:01;;;;;;;7.68;5.63;;;21.80;28.80;;;;;;5123845;27;21732;-66
2021/12/23 06:47:29;;;;;;;6.70;5.50;;;21.80;28.70;;;;;;5135091;27;20085;-66
2021/12/23 06:49:56;;;;;;;6.57;5.20;;;21.80;28.60;;;;;;5126541;27;20047;-66
2021/12/23 06:52:23;;;;;;;6.78;5.28;;;21.80;28.40;;;;;;5110466;27;20066;-66
2021/12/23 06:54:53;;;;;;;6.10;5.47;;;21.90;28.40;;;;;;5125650;27;20549;-66
2021/12/23 07:00:52;;;;;;;8.52;5.90;;;21.90;28.20;;;;;;5128471;27;20047;-66
2021/12/23 07:03:20;;;;;;;7.28;5.32;;;22.00;28.00;;;;;;5113222;27;20574;-67
2021/12/23 07:05:55;;;;;;;6.80;5.45;;;22.00;27.80;;;;;;5129177;27;20506;-67
2021/12/23 07:08:28;;;;;;;7.13;5.50;;;22.00;27.80;;;;;;5131878;27;20051;-61
2021/12/23 07:10:55;;;;;;;8.88;5.28;;;22.10;28.30;;;;;;5103087;27;20078;-61
2021/12/23 07:13:24;;;;;;;8.32;6.32;;;22.10;28.30;;;;;;5127295;27;20055;-60
2021/12/23 07:16:03;;;;;;;9.77;5.90;;;22.20;28.60;;;;;;5113377;27;20134;-63
2021/12/23 07:18:31;;;;;;;6.72;5.63;;;22.30;28.70;;;;;;5126756;27;20047;-63
2021/12/23 07:20:58;;;;;;;7.18;5.63;;;22.30;28.70;;;;;;5126009;27;20043;-63
2021/12/23 07:23:25;;;;;;;7.60;5.28;;;22.40;28.70;;;;;;5128629;27;20086;-63
2021/12/23 07:25:52;;;;;;;7.45;5.72;;;22.40;28.60;;;;;;5131677;27;20142;-63
2021/12/23 07:31:43;;;;;;;7.57;5.60;;;22.60;28.70;;;;;;5123721;27;20066;-62
2021/12/23 07:34:10;;;;;;;8.32;6.15;;;22.70;28.60;;;;;;5131662;27;20043;-62
2021/12/23 07:36:39;;;;;;;6.18;4.97;;;22.80;28.60;;;;;;5129767;27;20070;-61
2021/12/23 07:39:07;;;;;;;7.68;5.78;;;22.80;28.40;;;;;;5131447;27;20074;-63
2021/12/23 07:41:54;;;;;;;5.95;5.07;;;22.90;28.30;;;;;;5134755;27;20114;-64
2021/12/23 07:44:36;;;;;;;6.38;5.20;;;22.90;28.30;;;;;;5125634;27;20130;-65
2021/12/23 07:47:03;;;;;;;6.47;5.70;;;23.00;28.20;;;;;;5121160;27;20039;-63
2021/12/23 07:49:31;;;;;;;6.95;5.68;;;23.10;28.10;;;;;;5126457;27;20043;-64
2021/12/23 07:52:38;;;;;;;5.70;4.90;;;23.10;28.10;;;;;;5122103;27;20043;-62
2021/12/23 07:55:06;;;;;;;8.10;5.75;;;23.20;28.10;;;;;;5122216;27;20074;-62
2021/12/23 07:57:36;;;;;;;7.72;5.47;;;23.30;28.00;;;;;;5128529;27;20045;-63
2021/12/23 08:00:05;;;;;;;6.07;5.35;;;23.30;27.90;;;;;;5127356;27;20434;-63
2021/12/23 08:02:32;;;;;;;7.25;4.95;;;23.40;27.90;;;;;;5126269;27;20138;-62
2021/12/23 08:05:00;;;;;;;5.57;5.00;;;23.50;27.90;;;;;;5120066;27;20058;-63
2021/12/23 08:07:27;;;;;;;9.90;5.85;;;23.50;28.00;;;;;;5128696;27;20066;-63
2021/12/23 08:09:54;;;;;;;8.45;5.45;;;23.60;28.00;;;;;;5121644;27;20113;-63
2021/12/23 08:12:21;;;;;;;6.93;5.07;;;23.60;28.00;;;;;;5122242;27;20115;-63
2021/12/23 08:14:48;;;;;;;6.55;5.18;;;23.70;27.80;;;;;;5116732;27;20125;-64
2021/12/23 08:17:33;;;;;;;7.18;5.53;;;23.70;27.70;;;;;;5125528;27;20108;-62
2021/12/23 08:20:01;;;;;;;7.75;5.68;;;23.80;27.70;;;;;;5127432;27;20078;-64
2021/12/23 08:22:28;;;;;;;6.90;5.07;;;23.80;27.60;;;;;;5124076;27;20067;-62
2021/12/23 08:24:56;;;;;;;8.55;5.47;;;23.80;27.50;;;;;;5104383;27;20074;-64
2021/12/23 08:27:26;;;;;;;6.22;5.55;;;23.80;27.50;;;;;;5122432;27;20043;-62
2021/12/23 08:29:54;;;;;;;8.45;6.15;;;23.90;27.50;;;;;;5127159;27;20043;-64
2021/12/23 08:32:22;;;;;;;6.65;5.15;;;23.90;27.50;;;;;;5111105;27;20043;-62
2021/12/23 08:34:49;;;;;;;7.22;5.80;;;24.00;27.50;;;;;;5120860;27;20129;-59
2021/12/23 08:37:17;;;;;;;8.93;6.03;;;24.00;27.50;;;;;;5123376;27;20043;-61
2021/12/23 08:39:44;;;;;;;7.00;4.95;;;24.10;27.50;;;;;;5129233;27;20048;-64
2021/12/23 08:42:11;;;;;;;6.90;5.75;;;24.10;27.40;;;;;;5124790;27;20035;-69
2021/12/23 08:44:40;;;;;;;10.85;6.18;;;24.20;27.30;;;;;;5122199;27;20071;-69
2021/12/23 08:51:04;;;;;;;5.63;5.00;;;24.30;27.40;;;;;;5129306;27;20415;-71
2021/12/23 08:53:31;;;;;;;6.90;5.53;;;24.40;27.50;;;;;;5130547;27;20096;-68
2021/12/23 08:55:58;;;;;;;8.65;5.90;;;24.40;27.30;;;;;;5126722;27;20093;-69
2021/12/23 08:58:26;;;;;;;5.20;4.68;;;24.40;27.20;;;;;;5128224;28;20096;-68
2021/12/23 09:00:53;;;;;;;8.75;6.25;;;24.40;27.00;;;;;;5130261;28;20043;-69
2021/12/23 09:03:20;;;;;;;7.78;6.32;;;24.50;27.00;;;;;;5131024;28;20411;-70
2021/12/23 09:05:47;;;;;;;8.75;6.38;;;24.50;27.00;;;;;;5129674;28;20081;-67
2021/12/23 09:08:14;;;;;;;7.85;6.10;;;24.50;26.90;;;;;;5128525;28;20127;-67
2021/12/23 09:10:41;;;;;;;6.85;6.15;;;24.50;27.00;;;;;;5129800;28;20050;-66
2021/12/23 09:13:09;;;;;;;9.23;6.10;;;24.60;27.00;;;;;;5129633;28;20110;-72
2021/12/23 09:15:36;;;;;;;8.15;5.82;;;24.60;26.90;;;;;;5127520;28;20122;-68
2021/12/23 09:18:03;;;;;;;8.80;6.13;;;24.60;26.80;;;;;;5126185;28;20053;-70
2021/12/23 09:20:30;;;;;;;7.95;5.90;;;24.70;26.90;;;;;;5110751;28;20108;-69
2021/12/23 09:22:58;;;;;;;6.93;5.82;;;24.70;26.80;;;;;;5129140;28;20551;-67
2021/12/23 09:25:29;;;;;;;10.80;6.50;;;24.70;26.70;;;;;;5107107;28;20047;-66
2021/12/23 09:28:23;;;;;;;9.55;6.18;;;24.70;26.50;;;;;;5111524;28;20054;-68
2021/12/23 09:33:41;;;;;;;6.57;5.30;;;24.80;26.50;;;;;;5130008;28;20066;-67
2021/12/23 09:36:09;;;;;;;7.18;5.40;;;24.70;26.40;;;;;;5130691;28;20100;-68
2021/12/23 09:38:36;;;;;;;8.10;5.65;;;24.70;26.30;;;;;;5122337;27;20055;-68
2021/12/23 09:41:10;;;;;;;8.35;6.38;;;24.80;26.30;;;;;;5121186;27;20074;-67
2021/12/23 09:43:39;;;;;;;6.78;5.30;;;24.80;26.30;;;;;;5118207;28;20058;-67
2021/12/23 09:46:09;;;;;;;7.03;5.55;;;24.80;26.30;;;;;;5113570;27;20554;-68
2021/12/23 09:48:40;;;;;;;6.80;5.70;;;24.80;26.30;;;;;;5122545;27;20343;-67
2021/12/23 09:51:08;;;;;;;6.43;5.28;;;24.80;26.20;;;;;;5122941;27;20458;-67
2021/12/23 09:53:37;;;;;;;7.07;5.45;;;24.80;26.20;;;;;;5123717;27;20882;-67
2021/12/23 09:56:05;;;;;;;7.47;5.20;;;24.80;26.10;;;;;;5117409;27;20039;-68
2021/12/23 09:58:33;;;;;;;7.63;6.03;;;24.80;26.00;;;;;;5121874;27;20395;-68
2021/12/23 10:01:01;;;;;;;8.40;6.30;;;24.80;26.50;;;;;;5126607;27;20734;-68
2021/12/23 10:03:29;;;;;;;10.65;5.93;;;24.80;26.00;;;;;;5124176;27;20484;-68
2021/12/23 10:05:59;;;;;;;7.07;5.65;;;24.70;25.90;;;;;;5126582;27;20154;-69
2021/12/23 10:08:27;;;;;;;7.10;5.97;;;24.70;25.90;;;;;;5124301;27;20050;-70
2021/12/23 10:11:03;;;;;;;8.98;6.30;;;24.70;26.30;;;;;;5125133;27;20092;-70
2021/12/23 10:31:52;;;;;;;9.07;6.57;;;24.80;26.20;;;;;;5116841;27;20070;-70
2021/12/23 10:37:20;;;;;;;10.45;6.97;;;24.90;26.00;;;;;;5115439;27;20096;-69
2021/12/23 10:40:10;;;;;;;10.57;6.85;;;24.90;25.90;;;;;;5129239;27;20126;-64
2021/12/23 10:42:37;;;;;;;9.05;6.95;;;24.90;25.80;;;;;;5128387;27;20036;-66
2021/12/23 10:45:10;;;;;;;10.43;7.07;;;24.90;25.90;;;;;;5121748;27;21017;-63
2021/12/23 10:47:56;;;;;;;10.90;6.70;;;25.00;25.80;;;;;;5127469;27;20046;-67
2021/12/23 10:50:33;;;;;;;9.02;6.50;;;25.00;25.80;;;;;;5123453;27;20188;-70
2021/12/23 10:53:10;;;;;;;8.70;6.40;;;25.00;25.70;;;;;;5122519;27;20780;-69
2021/12/23 10:58:26;;;;;;;9.93;6.70;;;25.10;25.70;;;;;;5127519;27;20600;-69
2021/12/23 11:00:59;;;;;;;8.40;6.55;;;25.10;25.50;;;;;;5130939;27;20549;-65
2021/12/23 11:03:38;;;;;;;8.18;6.38;;;25.20;25.40;;;;;;5129605;27;20095;-66
2021/12/23 11:06:20;;;;;;;9.27;6.95;;;25.20;25.30;;;;;;5125822;27;20071;-65
2021/12/23 11:09:13;;;;;;;9.25;6.18;;;25.20;25.30;;;;;;5131600;27;20051;-65
2021/12/23 11:12:12;;;;;;;8.48;6.55;;;25.20;25.30;;;;;;5129608;27;20472;-65
2021/12/23 11:36:32;;;;;;;9.43;6.07;;;25.40;24.90;;;;;;5119830;27;20075;-66
2021/12/23 11:39:09;;;;;;;8.88;6.15;;;25.40;24.90;;;;;;5131953;27;20134;-66
2021/12/23 11:41:47;;;;;;;10.18;6.40;;;25.30;24.90;;;;;;5129737;27;20088;-66
2021/12/23 11:44:15;;;;;;;8.10;6.53;;;25.30;25.00;;;;;;5110824;28;20036;-66
2021/12/23 11:46:48;;;;;;;8.85;7.00;;;25.30;25.10;;;;;;5136247;27;20491;-66
2021/12/23 11:49:16;;;;;;;9.35;6.43;;;25.30;25.30;;;;;;5152708;27;20042;-69
2021/12/23 11:51:54;;;;;;;11.30;6.63;;;25.30;25.50;;;;;;5150957;27;20043;-67
2021/12/23 11:54:34;;;;;;;8.85;6.05;;;25.30;26.20;;;;;;5145480;27;20051;-68
2021/12/23 11:57:12;;;;;;;9.10;6.63;;;25.30;27.50;;;;;;5120824;27;20467;-67
2021/12/23 11:59:41;;;;;;;11.18;6.68;;;25.30;27.90;;;;;;5113409;27;20241;-70
2021/12/23 12:02:19;;;;;;;7.60;5.68;;;25.30;27.90;;;;;;5131574;27;20043;-66
2021/12/23 12:04:48;;;;;;;11.75;6.40;;;25.30;27.90;;;;;;5120872;27;20043;-66
2021/12/23 12:07:19;;;;;;;8.70;6.80;;;25.30;28.00;;;;;;5112928;27;20527;-67
2021/12/23 12:09:59;;;;;;;10.05;6.38;;;25.30;28.00;;;;;;5111131;28;20597;-66
2021/12/23 12:12:28;;;;;;;10.10;6.38;;;25.30;27.90;;;;;;5124562;27;20043;-66
2021/12/23 12:14:56;;;;;;;13.95;6.82;;;25.30;27.50;;;;;;5121050;27;20095;-66
2021/12/23 12:17:34;;;;;;;9.32;6.80;;;25.30;27.10;;;;;;5125154;27;20043;-66
2021/12/23 12:20:26;;;;;;;9.98;6.80;;;25.30;26.70;;;;;;5131366;27;20503;-67
2021/12/23 12:23:02;;;;;;;9.13;6.40;;;25.30;26.40;;;;;;5128069;27;20061;-66
2021/12/23 12:25:44;;;;;;;9.23;5.68;;;25.30;26.10;;;;;;5126707;27;20507;-66
2021/12/23 12:28:20;;;;;;;13.38;5.93;;;25.30;26.00;;;;;;5130481;27;20043;-66
2021/12/23 12:30:54;;;;;;;9.57;6.82;;;25.30;25.90;;;;;;5131420;27;20089;-67
2021/12/23 12:33:38;;;;;;;10.68;7.07;;;25.30;25.80;;;;;;5130479;27;20082;-67
2021/12/23 12:36:15;;;;;;;11.63;7.13;;;25.30;25.60;;;;;;5121681;27;20128;-67
2021/12/23 12:38:57;;;;;;;12.38;7.40;;;25.30;25.60;;;;;;5107836;28;20065;-66
2021/12/23 12:41:31;;;;;;;11.73;7.15;;;25.20;25.50;;;;;;5110997;28;20086;-67
2021/12/23 12:44:24;;;;;;;8.85;7.32;;;25.20;25.50;;;;;;5111571;28;20103;-67
2021/12/23 12:47:05;;;;;;;13.57;6.38;;;25.20;25.50;;;;;;5124131;27;20082;-67
2021/12/23 12:49:44;;;;;;;8.93;6.88;;;25.20;25.40;;;;;;5094226;28;20388;-67
2021/12/23 12:55:52;;;;;;;10.48;6.55;;;25.20;25.30;;;;;;5112771;28;20038;-66
2021/12/23 12:58:37;;;;;;;8.93;6.20;;;25.10;25.70;;;;;;5130062;28;20043;-69
2021/12/23 13:01:07;;;;;;;8.80;6.18;;;25.10;25.20;;;;;;5130470;28;20051;-66
2021/12/23 13:03:52;;;;;;;9.25;6.80;;;25.10;25.20;;;;;;5129993;28;20043;-66
2021/12/23 13:06:20;;;;;;;8.52;6.68;;;25.10;25.20;;;;;;5119163;28;20043;-67
2021/12/23 13:08:47;;;;;;;8.82;6.85;;;25.10;25.20;;;;;;5109594;28;20084;-66
2021/12/23 13:11:21;;;;;;;9.50;7.30;;;25.10;25.10;;;;;;5075282;28;20134;-66
2021/12/23 13:13:59;;;;;;;7.68;6.32;;;25.10;25.20;;;;;;5130500;28;20093;-67
2021/12/23 13:16:28;;;;;;;11.40;6.80;;;25.10;25.20;;;;;;5127094;28;20071;-66
2021/12/23 13:19:30;;;;;;;9.82;7.13;;;25.10;25.20;;;;;;5130612;28;20047;-67
2021/12/23 13:21:58;;;;;;;9.30;7.20;;;25.10;25.10;;;;;;5129107;28;20051;-67
2021/12/23 13:24:28;;;;;;;9.02;6.45;;;25.10;25.10;;;;;;5129938;28;20100;-67
2021/12/23 13:30:58;;;;;;;9.73;6.30;;;25.10;24.90;;;;;;5130747;28;20096;-67
2021/12/23 13:33:26;;;;;;;11.30;7.65;;;25.10;24.90;;;;;;5129705;28;20046;-70
2021/12/23 13:35:53;;;;;;;10.48;7.00;;;25.00;24.80;;;;;;5130769;27;20475;-67
2021/12/23 13:38:30;;;;;;;7.25;6.45;;;25.00;24.90;;;;;;5134556;27;20428;-66
2021/12/23 13:41:18;;;;;;;8.50;6.68;;;25.00;24.90;;;;;;5134103;27;20043;-66
2021/12/23 13:43:45;;;;;;;9.77;7.53;;;25.00;25.00;;;;;;5134546;27;20499;-67
2021/12/23 13:46:13;;;;;;;10.18;7.97;;;24.90;24.90;;;;;;5131724;27;20540;-66
2021/12/23 13:48:53;;;;;;;12.25;8.25;;;24.90;24.90;;;;;;5133649;27;20047;-67
2021/12/23 13:51:24;;;;;;;9.43;7.35;;;24.90;24.90;;;;;;5133723;27;20254;-67
2021/12/23 13:54:16;;;;;;;9.07;6.85;;;24.90;24.90;;;;;;5133971;27;20043;-66
2021/12/23 13:56:48;;;;;;;9.55;7.43;;;24.90;24.90;;;;;;5131752;27;20079;-67
2021/12/23 13:59:22;;;;;;;9.48;6.60;;;24.80;24.90;;;;;;5134348;27;20131;-66
2021/12/23 14:05:31;;;;;;;8.38;7.15;;;24.80;24.90;;;;;;5132210;27;20121;-69
2021/12/23 14:08:03;;;;;;;11.45;6.97;;;24.80;24.90;;;;;;5133384;27;20081;-66
2021/12/23 14:10:32;;;;;;;9.07;7.50;;;24.70;24.90;;;;;;5133961;27;20051;-67
2021/12/23 14:13:07;;;;;;;9.48;7.22;;;24.80;24.90;;;;;;5115340;27;20446;-66
2021/12/23 14:15:43;;;;;;;9.00;7.28;;;24.70;24.90;;;;;;5130966;27;20476;-67